sensor_id;sensor_type;location;lat;lon;timestamp;temperature;humidity
70366;DHT22;57787;48.216;12.396;2023-05-10T00:00:54;14.30;76.50
70366;DHT22;57787;48.216;12.396;2023-05-10T00:03:21;14.30;76.40
70366;DHT22;57787;48.216;12.396;2023-05-10T00:05:50;14.30;77.90
70366;DHT22;57787;48.216;12.396;2023-05-10T00:08:16;14.30;79.20
70366;DHT22;57787;48.216;12.396;2023-05-10T00:10:45;14.30;78.50
70366;DHT22;57787;48.216;12.396;2023-05-10T00:13:12;14.30;79.30
70366;DHT22;57787;48.216;12.396;2023-05-10T00:15:39;14.30;79.80
70366;DHT22;57787;48.216;12.396;2023-05-10T00:18:06;14.40;79.70
70366;DHT22;57787;48.216;12.396;2023-05-10T00:20:33;14.40;80.00
70366;DHT22;57787;48.216;12.396;2023-05-10T00:23:02;14.40;80.90
70366;DHT22;57787;48.216;12.396;2023-05-10T00:25:29;14.40;80.80
70366;DHT22;57787;48.216;12.396;2023-05-10T00:27:57;14.40;81.00
70366;DHT22;57787;48.216;12.396;2023-05-10T00:30:24;14.40;81.40
70366;DHT22;57787;48.216;12.396;2023-05-10T00:32:53;14.40;81.80
70366;DHT22;57787;48.216;12.396;2023-05-10T00:35:20;14.40;82.40
70366;DHT22;57787;48.216;12.396;2023-05-10T00:37:55;14.30;82.90
70366;DHT22;57787;48.216;12.396;2023-05-10T00:40:22;14.40;83.00
70366;DHT22;57787;48.216;12.396;2023-05-10T00:42:49;14.30;82.90
70366;DHT22;57787;48.216;12.396;2023-05-10T00:45:18;14.40;82.80
70366;DHT22;57787;48.216;12.396;2023-05-10T00:47:45;14.30;82.20
70366;DHT22;57787;48.216;12.396;2023-05-10T00:50:13;14.30;83.00
70366;DHT22;57787;48.216;12.396;2023-05-10T00:52:43;14.30;82.80
70366;DHT22;57787;48.216;12.396;2023-05-10T00:55:10;14.30;82.50
70366;DHT22;57787;48.216;12.396;2023-05-10T00:57:39;14.30;82.80
70366;DHT22;57787;48.216;12.396;2023-05-10T01:00:06;14.30;82.00
70366;DHT22;57787;48.216;12.396;2023-05-10T01:02:33;14.30;83.10
70366;DHT22;57787;48.216;12.396;2023-05-10T01:05:01;14.30;82.60
70366;DHT22;57787;48.216;12.396;2023-05-10T01:07:28;14.30;82.60
70366;DHT22;57787;48.216;12.396;2023-05-10T01:09:55;14.30;83.00
70366;DHT22;57787;48.216;12.396;2023-05-10T01:12:23;14.30;82.20
70366;DHT22;57787;48.216;12.396;2023-05-10T01:14:50;14.30;82.80
70366;DHT22;57787;48.216;12.396;2023-05-10T01:17:17;14.30;82.70
70366;DHT22;57787;48.216;12.396;2023-05-10T01:19:46;14.30;83.70
70366;DHT22;57787;48.216;12.396;2023-05-10T01:22:22;14.30;84.30
70366;DHT22;57787;48.216;12.396;2023-05-10T01:35:31;14.40;84.70
70366;DHT22;57787;48.216;12.396;2023-05-10T01:38:04;14.40;84.70
70366;DHT22;57787;48.216;12.396;2023-05-10T01:40:35;14.40;84.50
70366;DHT22;57787;48.216;12.396;2023-05-10T01:43:05;14.40;84.30
70366;DHT22;57787;48.216;12.396;2023-05-10T01:45:47;14.40;84.80
70366;DHT22;57787;48.216;12.396;2023-05-10T01:48:17;14.40;84.60
70366;DHT22;57787;48.216;12.396;2023-05-10T01:50:47;14.40;84.60
70366;DHT22;57787;48.216;12.396;2023-05-10T01:53:17;14.40;84.30
70366;DHT22;57787;48.216;12.396;2023-05-10T01:55:46;14.40;85.00
70366;DHT22;57787;48.216;12.396;2023-05-10T01:58:14;14.40;85.20
70366;DHT22;57787;48.216;12.396;2023-05-10T02:00:44;14.40;85.10
70366;DHT22;57787;48.216;12.396;2023-05-10T02:03:12;14.40;85.50
70366;DHT22;57787;48.216;12.396;2023-05-10T02:05:41;14.40;85.70
70366;DHT22;57787;48.216;12.396;2023-05-10T02:08:11;14.30;85.40
70366;DHT22;57787;48.216;12.396;2023-05-10T02:10:38;14.30;85.00
70366;DHT22;57787;48.216;12.396;2023-05-10T02:13:05;14.30;84.60
70366;DHT22;57787;48.216;12.396;2023-05-10T02:15:33;14.30;84.30
70366;DHT22;57787;48.216;12.396;2023-05-10T02:18:01;14.30;84.20
70366;DHT22;57787;48.216;12.396;2023-05-10T02:20:30;14.30;84.30
70366;DHT22;57787;48.216;12.396;2023-05-10T02:22:58;14.30;84.20
70366;DHT22;57787;48.216;12.396;2023-05-10T02:25:25;14.30;84.60
70366;DHT22;57787;48.216;12.396;2023-05-10T02:27:54;14.30;84.10
70366;DHT22;57787;48.216;12.396;2023-05-10T02:30:21;14.20;85.00
70366;DHT22;57787;48.216;12.396;2023-05-10T02:32:49;14.20;84.50
70366;DHT22;57787;48.216;12.396;2023-05-10T02:35:17;14.20;84.50
70366;DHT22;57787;48.216;12.396;2023-05-10T02:37:44;14.20;84.50
70366;DHT22;57787;48.216;12.396;2023-05-10T02:40:12;14.20;84.00
70366;DHT22;57787;48.216;12.396;2023-05-10T02:42:41;14.20;84.70
70366;DHT22;57787;48.216;12.396;2023-05-10T02:45:11;14.10;85.30
70366;DHT22;57787;48.216;12.396;2023-05-10T02:47:38;14.10;85.10
70366;DHT22;57787;48.216;12.396;2023-05-10T02:50:05;14.10;85.30
70366;DHT22;57787;48.216;12.396;2023-05-10T02:52:37;14.10;85.50
70366;DHT22;57787;48.216;12.396;2023-05-10T02:55:05;14.20;85.60
70366;DHT22;57787;48.216;12.396;2023-05-10T02:57:33;14.20;85.80
70366;DHT22;57787;48.216;12.396;2023-05-10T03:00:00;14.10;85.50
70366;DHT22;57787;48.216;12.396;2023-05-10T03:02:28;14.10;85.40
70366;DHT22;57787;48.216;12.396;2023-05-10T03:04:56;14.10;85.30
70366;DHT22;57787;48.216;12.396;2023-05-10T03:07:26;14.10;86.20
70366;DHT22;57787;48.216;12.396;2023-05-10T03:09:53;14.10;85.60
70366;DHT22;57787;48.216;12.396;2023-05-10T03:12:23;14.10;86.40
70366;DHT22;57787;48.216;12.396;2023-05-10T03:19:54;14.10;86.50
70366;DHT22;57787;48.216;12.396;2023-05-10T03:22:25;14.00;86.50
70366;DHT22;57787;48.216;12.396;2023-05-10T03:24:55;14.10;86.50
70366;DHT22;57787;48.216;12.396;2023-05-10T03:27:24;14.10;86.40
70366;DHT22;57787;48.216;12.396;2023-05-10T03:29:52;14.10;86.80
70366;DHT22;57787;48.216;12.396;2023-05-10T03:32:19;14.10;86.70
70366;DHT22;57787;48.216;12.396;2023-05-10T03:34:47;14.10;86.90
70366;DHT22;57787;48.216;12.396;2023-05-10T03:37:13;14.10;86.50
70366;DHT22;57787;48.216;12.396;2023-05-10T03:39:40;14.00;86.80
70366;DHT22;57787;48.216;12.396;2023-05-10T03:42:07;14.10;86.90
70366;DHT22;57787;48.216;12.396;2023-05-10T03:44:34;14.00;86.70
70366;DHT22;57787;48.216;12.396;2023-05-10T03:47:00;14.00;86.80
70366;DHT22;57787;48.216;12.396;2023-05-10T03:49:27;14.00;86.70
70366;DHT22;57787;48.216;12.396;2023-05-10T03:51:54;14.10;87.10
70366;DHT22;57787;48.216;12.396;2023-05-10T03:54:21;14.00;87.30
70366;DHT22;57787;48.216;12.396;2023-05-10T03:56:47;14.00;86.80
70366;DHT22;57787;48.216;12.396;2023-05-10T03:59:14;14.00;86.90
70366;DHT22;57787;48.216;12.396;2023-05-10T04:01:41;14.10;86.90
70366;DHT22;57787;48.216;12.396;2023-05-10T04:04:08;14.00;86.70
70366;DHT22;57787;48.216;12.396;2023-05-10T04:06:35;14.10;86.60
70366;DHT22;57787;48.216;12.396;2023-05-10T04:09:01;14.10;86.80
70366;DHT22;57787;48.216;12.396;2023-05-10T04:11:30;14.00;87.00
70366;DHT22;57787;48.216;12.396;2023-05-10T04:13:58;14.00;87.20
70366;DHT22;57787;48.216;12.396;2023-05-10T04:16:25;14.10;86.90
70366;DHT22;57787;48.216;12.396;2023-05-10T04:18:52;14.10;86.90
70366;DHT22;57787;48.216;12.396;2023-05-10T04:21:19;14.00;86.70
70366;DHT22;57787;48.216;12.396;2023-05-10T04:23:46;14.10;86.60
70366;DHT22;57787;48.216;12.396;2023-05-10T04:26:13;14.10;86.60
70366;DHT22;57787;48.216;12.396;2023-05-10T04:28:39;14.10;87.00
70366;DHT22;57787;48.216;12.396;2023-05-10T04:31:07;14.10;86.80
70366;DHT22;57787;48.216;12.396;2023-05-10T04:33:34;14.10;86.30
70366;DHT22;57787;48.216;12.396;2023-05-10T04:36:02;14.20;86.80
70366;DHT22;57787;48.216;12.396;2023-05-10T04:38:29;14.20;86.70
70366;DHT22;57787;48.216;12.396;2023-05-10T04:41:03;14.20;86.70
70366;DHT22;57787;48.216;12.396;2023-05-10T04:43:30;14.20;86.70
70366;DHT22;57787;48.216;12.396;2023-05-10T04:45:57;14.20;86.70
70366;DHT22;57787;48.216;12.396;2023-05-10T04:48:24;14.20;86.90
70366;DHT22;57787;48.216;12.396;2023-05-10T04:50:51;14.30;86.90
70366;DHT22;57787;48.216;12.396;2023-05-10T04:53:18;14.30;86.80
70366;DHT22;57787;48.216;12.396;2023-05-10T04:55:45;14.30;86.90
70366;DHT22;57787;48.216;12.396;2023-05-10T04:58:13;14.30;86.70
70366;DHT22;57787;48.216;12.396;2023-05-10T05:00:41;14.30;86.80
70366;DHT22;57787;48.216;12.396;2023-05-10T05:03:08;14.30;86.70
70366;DHT22;57787;48.216;12.396;2023-05-10T05:05:35;14.30;86.80
70366;DHT22;57787;48.216;12.396;2023-05-10T05:08:03;14.30;86.50
70366;DHT22;57787;48.216;12.396;2023-05-10T05:10:30;14.30;86.80
70366;DHT22;57787;48.216;12.396;2023-05-10T05:12:57;14.30;86.60
70366;DHT22;57787;48.216;12.396;2023-05-10T05:15:24;14.40;86.80
70366;DHT22;57787;48.216;12.396;2023-05-10T05:17:50;14.40;86.70
70366;DHT22;57787;48.216;12.396;2023-05-10T05:20:18;14.40;86.80
70366;DHT22;57787;48.216;12.396;2023-05-10T05:22:46;14.40;86.60
70366;DHT22;57787;48.216;12.396;2023-05-10T05:25:13;14.50;86.70
70366;DHT22;57787;48.216;12.396;2023-05-10T05:27:41;14.50;86.50
70366;DHT22;57787;48.216;12.396;2023-05-10T05:30:08;14.60;86.50
70366;DHT22;57787;48.216;12.396;2023-05-10T05:32:35;14.60;86.60
70366;DHT22;57787;48.216;12.396;2023-05-10T05:35:02;14.70;86.40
70366;DHT22;57787;48.216;12.396;2023-05-10T05:37:29;14.80;86.40
70366;DHT22;57787;48.216;12.396;2023-05-10T05:39:57;14.80;86.30
70366;DHT22;57787;48.216;12.396;2023-05-10T05:42:24;14.90;86.40
70366;DHT22;57787;48.216;12.396;2023-05-10T05:44:50;14.90;86.00
70366;DHT22;57787;48.216;12.396;2023-05-10T05:47:18;15.00;86.00
70366;DHT22;57787;48.216;12.396;2023-05-10T05:49:45;15.00;85.50
70366;DHT22;57787;48.216;12.396;2023-05-10T05:52:12;15.10;85.30
70366;DHT22;57787;48.216;12.396;2023-05-10T05:54:40;15.20;85.40
70366;DHT22;57787;48.216;12.396;2023-05-10T05:57:07;15.20;85.20
70366;DHT22;57787;48.216;12.396;2023-05-10T05:59:34;15.20;84.90
70366;DHT22;57787;48.216;12.396;2023-05-10T06:02:01;15.30;85.20
70366;DHT22;57787;48.216;12.396;2023-05-10T06:04:28;15.30;84.70
70366;DHT22;57787;48.216;12.396;2023-05-10T06:06:55;15.40;84.90
70366;DHT22;57787;48.216;12.396;2023-05-10T06:09:22;15.30;84.60
70366;DHT22;57787;48.216;12.396;2023-05-10T06:11:50;15.40;84.40
70366;DHT22;57787;48.216;12.396;2023-05-10T06:14:19;15.40;84.70
70366;DHT22;57787;48.216;12.396;2023-05-10T06:16:46;15.40;84.70
70366;DHT22;57787;48.216;12.396;2023-05-10T06:19:13;15.40;84.70
70366;DHT22;57787;48.216;12.396;2023-05-10T06:21:40;15.50;84.40
70366;DHT22;57787;48.216;12.396;2023-05-10T06:24:07;15.50;84.40
70366;DHT22;57787;48.216;12.396;2023-05-10T06:26:34;15.50;83.90
70366;DHT22;57787;48.216;12.396;2023-05-10T06:29:00;15.40;84.00
70366;DHT22;57787;48.216;12.396;2023-05-10T06:31:27;15.40;84.10
70366;DHT22;57787;48.216;12.396;2023-05-10T06:33:54;15.40;84.40
70366;DHT22;57787;48.216;12.396;2023-05-10T06:36:22;15.40;84.50
70366;DHT22;57787;48.216;12.396;2023-05-10T06:38:51;15.40;84.30
70366;DHT22;57787;48.216;12.396;2023-05-10T06:41:17;15.40;84.30
70366;DHT22;57787;48.216;12.396;2023-05-10T06:43:50;15.40;84.20
70366;DHT22;57787;48.216;12.396;2023-05-10T06:46:17;15.40;84.30
70366;DHT22;57787;48.216;12.396;2023-05-10T06:48:46;15.30;84.00
70366;DHT22;57787;48.216;12.396;2023-05-10T06:51:13;15.30;83.10
70366;DHT22;57787;48.216;12.396;2023-05-10T06:53:42;15.30;83.20
70366;DHT22;57787;48.216;12.396;2023-05-10T06:56:08;15.30;82.60
70366;DHT22;57787;48.216;12.396;2023-05-10T06:58:38;15.20;82.60
70366;DHT22;57787;48.216;12.396;2023-05-10T07:01:08;15.20;82.50
70366;DHT22;57787;48.216;12.396;2023-05-10T07:03:38;15.20;82.20
70366;DHT22;57787;48.216;12.396;2023-05-10T07:06:05;15.20;82.10
70366;DHT22;57787;48.216;12.396;2023-05-10T07:08:55;15.30;82.30
70366;DHT22;57787;48.216;12.396;2023-05-10T07:11:23;15.30;82.80
70366;DHT22;57787;48.216;12.396;2023-05-10T07:13:50;15.30;82.90
70366;DHT22;57787;48.216;12.396;2023-05-10T07:16:17;15.30;82.50
70366;DHT22;57787;48.216;12.396;2023-05-10T07:18:43;15.40;82.60
70366;DHT22;57787;48.216;12.396;2023-05-10T07:21:10;15.30;82.60
70366;DHT22;57787;48.216;12.396;2023-05-10T07:23:38;15.40;82.00
70366;DHT22;57787;48.216;12.396;2023-05-10T07:26:10;15.40;82.80
70366;DHT22;57787;48.216;12.396;2023-05-10T07:28:38;15.40;83.30
70366;DHT22;57787;48.216;12.396;2023-05-10T07:31:05;15.50;83.10
70366;DHT22;57787;48.216;12.396;2023-05-10T07:33:32;15.50;82.10
70366;DHT22;57787;48.216;12.396;2023-05-10T07:35:59;15.40;82.70
70366;DHT22;57787;48.216;12.396;2023-05-10T07:38:26;15.50;82.10
70366;DHT22;57787;48.216;12.396;2023-05-10T07:40:55;15.40;80.80
70366;DHT22;57787;48.216;12.396;2023-05-10T07:43:21;15.30;81.60
70366;DHT22;57787;48.216;12.396;2023-05-10T07:45:49;15.30;81.40
70366;DHT22;57787;48.216;12.396;2023-05-10T07:48:18;15.30;80.40
70366;DHT22;57787;48.216;12.396;2023-05-10T07:50:44;15.30;81.90
70366;DHT22;57787;48.216;12.396;2023-05-10T07:53:13;15.40;81.80
70366;DHT22;57787;48.216;12.396;2023-05-10T07:55:40;15.40;81.30
70366;DHT22;57787;48.216;12.396;2023-05-10T07:58:06;15.50;82.10
70366;DHT22;57787;48.216;12.396;2023-05-10T08:00:33;15.50;81.40
70366;DHT22;57787;48.216;12.396;2023-05-10T08:03:02;15.50;81.30
70366;DHT22;57787;48.216;12.396;2023-05-10T08:05:29;15.60;81.00
70366;DHT22;57787;48.216;12.396;2023-05-10T08:07:56;15.70;81.30
70366;DHT22;57787;48.216;12.396;2023-05-10T08:10:23;15.70;81.80
70366;DHT22;57787;48.216;12.396;2023-05-10T08:12:50;15.70;79.20
70366;DHT22;57787;48.216;12.396;2023-05-10T08:15:17;15.70;80.40
70366;DHT22;57787;48.216;12.396;2023-05-10T08:17:46;15.70;80.40
70366;DHT22;57787;48.216;12.396;2023-05-10T08:20:14;15.70;79.40
70366;DHT22;57787;48.216;12.396;2023-05-10T08:22:47;15.70;80.80
70366;DHT22;57787;48.216;12.396;2023-05-10T08:25:17;15.70;80.20
70366;DHT22;57787;48.216;12.396;2023-05-10T08:27:44;15.80;81.40
70366;DHT22;57787;48.216;12.396;2023-05-10T08:30:11;15.70;80.20
70366;DHT22;57787;48.216;12.396;2023-05-10T08:32:39;15.80;80.70
70366;DHT22;57787;48.216;12.396;2023-05-10T08:35:08;15.80;79.50
70366;DHT22;57787;48.216;12.396;2023-05-10T08:37:36;16.00;80.00
70366;DHT22;57787;48.216;12.396;2023-05-10T08:40:03;16.00;80.30
70366;DHT22;57787;48.216;12.396;2023-05-10T08:42:30;16.10;80.00
70366;DHT22;57787;48.216;12.396;2023-05-10T08:44:57;16.30;80.40
70366;DHT22;57787;48.216;12.396;2023-05-10T08:47:25;16.40;79.00
70366;DHT22;57787;48.216;12.396;2023-05-10T08:49:52;16.70;79.10
70366;DHT22;57787;48.216;12.396;2023-05-10T08:52:19;16.80;79.50
70366;DHT22;57787;48.216;12.396;2023-05-10T08:54:47;16.90;78.40
70366;DHT22;57787;48.216;12.396;2023-05-10T08:57:14;17.10;78.60
70366;DHT22;57787;48.216;12.396;2023-05-10T08:59:41;17.20;78.90
70366;DHT22;57787;48.216;12.396;2023-05-10T09:02:09;17.40;78.50
70366;DHT22;57787;48.216;12.396;2023-05-10T09:04:36;17.50;77.90
70366;DHT22;57787;48.216;12.396;2023-05-10T09:07:03;17.60;75.80
70366;DHT22;57787;48.216;12.396;2023-05-10T09:09:33;17.80;76.90
70366;DHT22;57787;48.216;12.396;2023-05-10T09:12:00;17.80;75.70
70366;DHT22;57787;48.216;12.396;2023-05-10T09:14:27;17.80;74.40
70366;DHT22;57787;48.216;12.396;2023-05-10T09:16:54;17.80;74.80
70366;DHT22;57787;48.216;12.396;2023-05-10T09:19:22;17.90;74.00
70366;DHT22;57787;48.216;12.396;2023-05-10T09:21:50;17.90;73.60
70366;DHT22;57787;48.216;12.396;2023-05-10T09:24:17;18.00;74.10
70366;DHT22;57787;48.216;12.396;2023-05-10T09:26:47;18.20;73.50
70366;DHT22;57787;48.216;12.396;2023-05-10T09:29:18;18.40;73.20
70366;DHT22;57787;48.216;12.396;2023-05-10T09:31:51;18.60;72.30
70366;DHT22;57787;48.216;12.396;2023-05-10T09:34:18;19.00;71.80
70366;DHT22;57787;48.216;12.396;2023-05-10T09:36:52;19.10;67.40
70366;DHT22;57787;48.216;12.396;2023-05-10T09:39:20;19.30;68.20
70366;DHT22;57787;48.216;12.396;2023-05-10T09:41:47;19.40;67.00
70366;DHT22;57787;48.216;12.396;2023-05-10T09:44:16;19.60;66.40
70366;DHT22;57787;48.216;12.396;2023-05-10T09:46:48;19.80;66.20
70366;DHT22;57787;48.216;12.396;2023-05-10T09:49:14;19.90;66.80
70366;DHT22;57787;48.216;12.396;2023-05-10T09:51:41;19.90;63.70
70366;DHT22;57787;48.216;12.396;2023-05-10T09:54:15;19.90;64.60
70366;DHT22;57787;48.216;12.396;2023-05-10T09:56:42;19.80;65.80
70366;DHT22;57787;48.216;12.396;2023-05-10T09:59:10;19.90;64.60
70366;DHT22;57787;48.216;12.396;2023-05-10T10:01:38;19.80;63.60
70366;DHT22;57787;48.216;12.396;2023-05-10T10:04:05;19.80;63.10
70366;DHT22;57787;48.216;12.396;2023-05-10T10:06:36;19.90;61.20
70366;DHT22;57787;48.216;12.396;2023-05-10T10:09:04;19.90;61.60
70366;DHT22;57787;48.216;12.396;2023-05-10T10:11:31;19.90;64.80
70366;DHT22;57787;48.216;12.396;2023-05-10T10:13:59;19.80;62.00
70366;DHT22;57787;48.216;12.396;2023-05-10T10:16:27;19.80;61.80
70366;DHT22;57787;48.216;12.396;2023-05-10T10:18:56;19.90;63.70
70366;DHT22;57787;48.216;12.396;2023-05-10T10:21:23;20.10;63.70
70366;DHT22;57787;48.216;12.396;2023-05-10T10:23:50;20.20;60.90
70366;DHT22;57787;48.216;12.396;2023-05-10T10:26:19;20.30;61.70
70366;DHT22;57787;48.216;12.396;2023-05-10T10:31:53;20.50;60.40
70366;DHT22;57787;48.216;12.396;2023-05-10T10:34:10;20.60;58.90
70366;DHT22;57787;48.216;12.396;2023-05-10T10:36:45;20.60;58.00
70366;DHT22;57787;48.216;12.396;2023-05-10T10:39:12;20.70;57.40
70366;DHT22;57787;48.216;12.396;2023-05-10T10:41:49;20.70;60.00
70366;DHT22;57787;48.216;12.396;2023-05-10T10:44:26;20.70;57.60
70366;DHT22;57787;48.216;12.396;2023-05-10T10:49:42;20.50;58.90
70366;DHT22;57787;48.216;12.396;2023-05-10T10:52:21;20.30;56.30
70366;DHT22;57787;48.216;12.396;2023-05-10T10:54:51;20.20;60.00
70366;DHT22;57787;48.216;12.396;2023-05-10T10:57:19;20.00;62.30
70366;DHT22;57787;48.216;12.396;2023-05-10T10:59:48;19.80;64.90
70366;DHT22;57787;48.216;12.396;2023-05-10T11:02:34;19.70;66.60
70366;DHT22;57787;48.216;12.396;2023-05-10T11:07:54;19.60;68.60
70366;DHT22;57787;48.216;12.396;2023-05-10T11:10:22;19.70;69.20
70366;DHT22;57787;48.216;12.396;2023-05-10T11:13:01;19.60;68.40
70366;DHT22;57787;48.216;12.396;2023-05-10T11:15:29;19.70;69.90
70366;DHT22;57787;48.216;12.396;2023-05-10T11:17:57;19.50;68.20
70366;DHT22;57787;48.216;12.396;2023-05-10T11:20:26;19.60;66.30
70366;DHT22;57787;48.216;12.396;2023-05-10T11:23:10;19.40;63.80
70366;DHT22;57787;48.216;12.396;2023-05-10T11:25:42;19.30;63.50
70366;DHT22;57787;48.216;12.396;2023-05-10T11:28:09;19.00;66.30
70366;DHT22;57787;48.216;12.396;2023-05-10T11:30:40;18.70;68.40
70366;DHT22;57787;48.216;12.396;2023-05-10T11:33:07;18.50;69.10
70366;DHT22;57787;48.216;12.396;2023-05-10T11:35:39;18.20;69.40
70366;DHT22;57787;48.216;12.396;2023-05-10T11:38:09;17.90;70.60
70366;DHT22;57787;48.216;12.396;2023-05-10T11:40:36;17.70;72.30
70366;DHT22;57787;48.216;12.396;2023-05-10T11:43:03;17.50;71.90
70366;DHT22;57787;48.216;12.396;2023-05-10T11:45:32;17.50;72.70
70366;DHT22;57787;48.216;12.396;2023-05-10T11:47:59;17.50;72.60
70366;DHT22;57787;48.216;12.396;2023-05-10T11:50:27;17.40;69.40
70366;DHT22;57787;48.216;12.396;2023-05-10T11:52:54;17.30;70.70
70366;DHT22;57787;48.216;12.396;2023-05-10T11:55:21;17.40;73.00
70366;DHT22;57787;48.216;12.396;2023-05-10T11:57:53;17.30;72.50
70366;DHT22;57787;48.216;12.396;2023-05-10T12:00:20;17.30;73.00
70366;DHT22;57787;48.216;12.396;2023-05-10T12:02:51;17.40;72.90
70366;DHT22;57787;48.216;12.396;2023-05-10T12:05:18;17.50;72.90
70366;DHT22;57787;48.216;12.396;2023-05-10T12:07:45;17.50;71.40
70366;DHT22;57787;48.216;12.396;2023-05-10T12:10:13;17.60;72.80
70366;DHT22;57787;48.216;12.396;2023-05-10T12:12:45;17.70;73.00
70366;DHT22;57787;48.216;12.396;2023-05-10T12:15:23;17.80;73.20
70366;DHT22;57787;48.216;12.396;2023-05-10T12:17:50;17.90;73.40
70366;DHT22;57787;48.216;12.396;2023-05-10T12:20:18;17.90;73.70
70366;DHT22;57787;48.216;12.396;2023-05-10T12:22:52;18.00;71.80
70366;DHT22;57787;48.216;12.396;2023-05-10T12:25:30;18.10;73.10
70366;DHT22;57787;48.216;12.396;2023-05-10T12:27:58;18.20;72.70
70366;DHT22;57787;48.216;12.396;2023-05-10T12:30:28;18.30;73.90
70366;DHT22;57787;48.216;12.396;2023-05-10T12:32:59;18.40;73.60
70366;DHT22;57787;48.216;12.396;2023-05-10T12:35:29;18.40;71.90
70366;DHT22;57787;48.216;12.396;2023-05-10T12:37:56;18.40;71.50
70366;DHT22;57787;48.216;12.396;2023-05-10T12:40:23;18.50;72.70
70366;DHT22;57787;48.216;12.396;2023-05-10T12:42:51;18.60;72.10
70366;DHT22;57787;48.216;12.396;2023-05-10T12:45:18;18.50;70.40
70366;DHT22;57787;48.216;12.396;2023-05-10T12:47:45;18.60;71.00
70366;DHT22;57787;48.216;12.396;2023-05-10T12:50:12;18.60;71.60
70366;DHT22;57787;48.216;12.396;2023-05-10T12:52:40;18.50;71.00
70366;DHT22;57787;48.216;12.396;2023-05-10T12:55:07;18.60;70.70
70366;DHT22;57787;48.216;12.396;2023-05-10T12:57:35;18.60;71.20
70366;DHT22;57787;48.216;12.396;2023-05-10T13:00:02;18.50;71.20
70366;DHT22;57787;48.216;12.396;2023-05-10T13:02:29;18.60;72.00
70366;DHT22;57787;48.216;12.396;2023-05-10T13:04:58;18.60;70.20
70366;DHT22;57787;48.216;12.396;2023-05-10T13:07:26;18.60;70.90
70366;DHT22;57787;48.216;12.396;2023-05-10T13:09:53;18.60;71.60
70366;DHT22;57787;48.216;12.396;2023-05-10T13:12:20;18.50;70.90
70366;DHT22;57787;48.216;12.396;2023-05-10T13:14:47;18.60;71.20
70366;DHT22;57787;48.216;12.396;2023-05-10T13:17:15;18.50;70.20
70366;DHT22;57787;48.216;12.396;2023-05-10T13:19:41;18.30;70.40
70366;DHT22;57787;48.216;12.396;2023-05-10T13:22:08;18.10;70.70
70366;DHT22;57787;48.216;12.396;2023-05-10T13:24:37;18.00;71.90
70366;DHT22;57787;48.216;12.396;2023-05-10T13:27:04;17.90;72.40
70366;DHT22;57787;48.216;12.396;2023-05-10T13:29:32;18.00;71.50
70366;DHT22;57787;48.216;12.396;2023-05-10T13:31:59;17.90;72.50
70366;DHT22;57787;48.216;12.396;2023-05-10T13:34:26;17.90;72.90
70366;DHT22;57787;48.216;12.396;2023-05-10T13:36:54;17.90;73.10
70366;DHT22;57787;48.216;12.396;2023-05-10T13:39:23;17.90;73.20
70366;DHT22;57787;48.216;12.396;2023-05-10T13:41:50;17.90;73.60
70366;DHT22;57787;48.216;12.396;2023-05-10T13:44:21;17.90;75.20
70366;DHT22;57787;48.216;12.396;2023-05-10T13:46:49;18.20;73.60
70366;DHT22;57787;48.216;12.396;2023-05-10T13:49:21;18.30;73.40
70366;DHT22;57787;48.216;12.396;2023-05-10T13:51:48;18.40;74.20
70366;DHT22;57787;48.216;12.396;2023-05-10T13:54:15;18.70;74.20
70366;DHT22;57787;48.216;12.396;2023-05-10T13:56:43;18.80;72.80
70366;DHT22;57787;48.216;12.396;2023-05-10T13:59:11;19.00;72.10
70366;DHT22;57787;48.216;12.396;2023-05-10T14:01:40;19.00;71.80
70366;DHT22;57787;48.216;12.396;2023-05-10T14:04:07;19.20;72.50
70366;DHT22;57787;48.216;12.396;2023-05-10T14:06:37;19.20;72.30
70366;DHT22;57787;48.216;12.396;2023-05-10T14:09:07;19.30;71.20
70366;DHT22;57787;48.216;12.396;2023-05-10T14:11:42;19.30;71.30
70366;DHT22;57787;48.216;12.396;2023-05-10T14:14:09;19.20;70.00
70366;DHT22;57787;48.216;12.396;2023-05-10T14:16:36;19.00;70.00
70366;DHT22;57787;48.216;12.396;2023-05-10T14:19:03;18.80;69.70
70366;DHT22;57787;48.216;12.396;2023-05-10T14:21:30;18.50;69.20
70366;DHT22;57787;48.216;12.396;2023-05-10T14:23:57;18.30;70.70
70366;DHT22;57787;48.216;12.396;2023-05-10T14:26:25;18.00;71.40
70366;DHT22;57787;48.216;12.396;2023-05-10T14:28:58;17.90;71.80
70366;DHT22;57787;48.216;12.396;2023-05-10T14:31:25;17.70;73.00
70366;DHT22;57787;48.216;12.396;2023-05-10T14:33:56;17.50;73.40
70366;DHT22;57787;48.216;12.396;2023-05-10T14:36:26;17.30;73.70
70366;DHT22;57787;48.216;12.396;2023-05-10T14:38:53;17.10;74.00
70366;DHT22;57787;48.216;12.396;2023-05-10T14:41:20;16.90;74.50
70366;DHT22;57787;48.216;12.396;2023-05-10T14:43:46;16.70;75.50
70366;DHT22;57787;48.216;12.396;2023-05-10T14:46:13;16.50;74.50
70366;DHT22;57787;48.216;12.396;2023-05-10T14:48:52;16.30;75.20
70366;DHT22;57787;48.216;12.396;2023-05-10T14:51:18;16.20;75.80
70366;DHT22;57787;48.216;12.396;2023-05-10T14:53:48;16.10;75.60
70366;DHT22;57787;48.216;12.396;2023-05-10T14:56:15;16.00;77.70
70366;DHT22;57787;48.216;12.396;2023-05-10T14:58:43;15.90;77.30
70366;DHT22;57787;48.216;12.396;2023-05-10T15:01:11;15.80;77.60
70366;DHT22;57787;48.216;12.396;2023-05-10T15:03:39;15.80;78.20
70366;DHT22;57787;48.216;12.396;2023-05-10T15:06:07;15.70;78.10
70366;DHT22;57787;48.216;12.396;2023-05-10T15:08:34;15.70;78.10
70366;DHT22;57787;48.216;12.396;2023-05-10T15:11:01;15.70;79.10
70366;DHT22;57787;48.216;12.396;2023-05-10T15:13:28;15.70;77.80
70366;DHT22;57787;48.216;12.396;2023-05-10T15:15:55;15.60;77.80
70366;DHT22;57787;48.216;12.396;2023-05-10T15:18:21;15.60;79.40
70366;DHT22;57787;48.216;12.396;2023-05-10T15:20:51;15.60;79.10
70366;DHT22;57787;48.216;12.396;2023-05-10T15:23:18;15.60;79.40
70366;DHT22;57787;48.216;12.396;2023-05-10T15:25:46;15.60;79.50
70366;DHT22;57787;48.216;12.396;2023-05-10T15:28:12;15.50;79.30
70366;DHT22;57787;48.216;12.396;2023-05-10T15:30:39;15.50;78.80
70366;DHT22;57787;48.216;12.396;2023-05-10T15:33:06;15.50;79.60
70366;DHT22;57787;48.216;12.396;2023-05-10T15:35:34;15.50;78.80
70366;DHT22;57787;48.216;12.396;2023-05-10T15:38:02;15.40;78.80
70366;DHT22;57787;48.216;12.396;2023-05-10T15:40:29;15.40;79.70
70366;DHT22;57787;48.216;12.396;2023-05-10T15:42:56;15.30;79.70
70366;DHT22;57787;48.216;12.396;2023-05-10T15:45:24;15.30;78.70